createdAt,value
2018-12-03T00:00:03.071Z,20.32
2018-12-03T00:03:06.559Z,17.60
2018-12-03T00:06:09.795Z,19.73
2018-12-03T00:09:12.875Z,18.87
2018-12-03T00:12:16.035Z,21.20
2018-12-03T00:15:19.142Z,16.90
2018-12-03T00:18:22.439Z,16.27
2018-12-03T00:21:25.531Z,14.38
2018-12-03T00:24:28.731Z,18.82
2018-12-03T00:27:31.818Z,11.45
2018-12-03T00:30:34.915Z,18.10
2018-12-03T00:33:38.347Z,21.57
2018-12-03T00:36:41.508Z,18.87
2018-12-03T00:39:44.603Z,19.00
2018-12-03T00:42:47.851Z,20.17
2018-12-03T00:45:50.891Z,21.45
2018-12-03T00:48:53.980Z,19.90
2018-12-03T00:51:57.072Z,19.03
2018-12-03T00:55:00.167Z,19.35
2018-12-03T00:58:03.362Z,14.30
2018-12-03T01:01:06.823Z,21.52
2018-12-03T01:04:09.960Z,18.23
2018-12-03T01:07:13.151Z,16.37
2018-12-03T01:10:16.173Z,15.00
2018-12-03T01:13:19.275Z,17.93
2018-12-03T01:16:22.331Z,17.33
2018-12-03T01:19:25.414Z,18.40
2018-12-03T01:22:28.447Z,15.30
2018-12-03T01:25:31.540Z,25.73
2018-12-03T01:28:34.640Z,16.70
2018-12-03T01:31:37.727Z,20.50
2018-12-03T01:34:40.819Z,26.85
2018-12-03T01:37:43.906Z,27.17
2018-12-03T01:40:47.119Z,25.73
2018-12-03T01:43:50.195Z,32.55
2018-12-03T01:46:53.275Z,30.90
2018-12-03T01:49:56.384Z,31.62
2018-12-03T01:52:59.476Z,34.63
2018-12-03T01:56:02.567Z,25.48
2018-12-03T01:59:05.967Z,22.07
2018-12-03T02:02:09.059Z,19.87
2018-12-03T02:05:12.547Z,20.73
2018-12-03T02:08:15.655Z,22.10
2018-12-03T02:11:18.747Z,16.53
2018-12-03T02:14:21.839Z,23.23
2018-12-03T02:17:24.931Z,19.90
2018-12-03T02:20:28.025Z,19.27
2018-12-03T02:23:31.103Z,17.30
2018-12-03T02:26:34.195Z,17.25
2018-12-03T02:29:37.303Z,19.87
2018-12-03T02:32:41.010Z,17.92
2018-12-03T02:35:44.105Z,15.83
2018-12-03T02:38:47.374Z,16.45
2018-12-03T02:41:50.405Z,20.10
2018-12-03T02:44:53.491Z,18.80
2018-12-03T02:47:56.575Z,13.05
2018-12-03T02:50:59.771Z,15.72
2018-12-03T02:54:02.875Z,16.23
2018-12-03T02:57:06.163Z,14.90
2018-12-03T03:00:15.235Z,15.68
2018-12-03T03:03:18.287Z,13.22
2018-12-03T03:06:21.381Z,14.73
2018-12-03T03:09:24.473Z,15.30
2018-12-03T03:12:27.567Z,15.13
2018-12-03T03:15:30.655Z,18.85
2018-12-03T03:18:33.965Z,15.10
2018-12-03T03:21:37.048Z,15.50
2018-12-03T03:24:40.139Z,14.50
2018-12-03T03:27:43.987Z,14.83
2018-12-03T03:30:47.238Z,9.33
2018-12-03T03:33:50.427Z,12.63
2018-12-03T03:36:53.538Z,8.83
2018-12-03T03:39:56.675Z,9.25
2018-12-03T03:42:59.723Z,10.08
2018-12-03T03:46:02.843Z,10.13
2018-12-03T03:49:05.997Z,11.20
2018-12-03T03:52:09.132Z,8.00
2018-12-03T03:55:12.194Z,13.93
2018-12-03T03:58:15.327Z,9.23
2018-12-03T04:01:18.625Z,8.35
2018-12-03T04:04:21.675Z,11.78
2018-12-03T04:07:24.815Z,14.15
2018-12-03T04:10:27.964Z,13.47
2018-12-03T04:13:31.133Z,12.70
2018-12-03T04:16:34.251Z,14.23
2018-12-03T04:19:37.374Z,15.95
2018-12-03T04:22:41.427Z,13.95
2018-12-03T04:25:44.487Z,19.42
2018-12-03T04:36:39.996Z,18.80
2018-12-03T04:39:43.084Z,19.32
2018-12-03T04:42:46.181Z,20.48
2018-12-03T04:45:49.377Z,24.02
2018-12-03T04:48:52.537Z,27.05
2018-12-03T04:51:55.649Z,27.65
2018-12-03T04:54:58.752Z,30.15
2018-12-03T04:58:01.844Z,29.40
2018-12-03T05:01:05.652Z,26.95
2018-12-03T05:04:08.745Z,31.95
2018-12-03T05:07:11.832Z,35.05
2018-12-03T05:10:16.777Z,32.48
2018-12-03T05:13:19.866Z,33.90
2018-12-03T05:16:22.962Z,34.17
2018-12-03T05:19:26.053Z,39.48
2018-12-03T05:22:29.216Z,37.67
2018-12-03T05:25:32.373Z,39.48
2018-12-03T05:28:35.435Z,36.25
2018-12-03T05:31:38.521Z,27.93
2018-12-03T05:34:41.613Z,34.23
2018-12-03T05:37:44.700Z,35.60
2018-12-03T05:40:47.897Z,36.23
2018-12-03T05:43:50.996Z,34.85
2018-12-03T05:46:54.094Z,33.92
2018-12-03T05:49:57.180Z,38.92
2018-12-03T05:53:00.273Z,36.33
2018-12-03T05:56:03.356Z,44.08
2018-12-03T05:59:06.253Z,55.70
2018-12-03T06:02:09.347Z,45.73
2018-12-03T06:05:13.257Z,47.50
2018-12-03T06:08:16.349Z,39.42
2018-12-03T06:11:19.443Z,41.23
2018-12-03T06:14:22.532Z,37.08
2018-12-03T06:17:25.628Z,44.08
2018-12-03T06:20:28.717Z,50.83
2018-12-03T06:23:31.812Z,39.88
2018-12-03T06:26:34.909Z,42.17
2018-12-03T06:29:38.030Z,39.45
2018-12-03T06:32:41.088Z,36.03
2018-12-03T06:35:44.213Z,34.40
2018-12-03T06:38:47.414Z,37.37
2018-12-03T06:41:50.468Z,35.03
2018-12-03T06:44:53.704Z,36.68
2018-12-03T06:48:01.365Z,34.48
2018-12-03T06:51:04.902Z,36.50
2018-12-03T06:54:07.969Z,42.83
2018-12-03T06:57:11.088Z,42.13
2018-12-03T07:00:15.416Z,40.17
2018-12-03T07:03:18.601Z,38.80
2018-12-03T07:06:21.871Z,43.23
2018-12-03T07:09:25.028Z,40.40
2018-12-03T07:12:28.285Z,43.55
2018-12-03T07:15:33.180Z,36.80
2018-12-03T07:18:36.540Z,53.85
2018-12-03T07:21:39.641Z,44.35
2018-12-03T07:24:42.775Z,39.48
2018-12-03T07:27:45.823Z,33.30
2018-12-03T07:30:49.011Z,44.23
2018-12-03T07:33:52.343Z,42.93
2018-12-03T07:36:55.402Z,44.08
2018-12-03T07:39:58.541Z,40.30
2018-12-03T07:43:01.591Z,35.33
2018-12-03T07:46:05.023Z,31.85
2018-12-03T07:49:08.088Z,34.05
2018-12-03T07:52:11.211Z,34.95
2018-12-03T07:55:18.172Z,30.62
2018-12-03T07:58:22.051Z,35.23
2018-12-03T08:01:25.043Z,41.53
2018-12-03T08:04:28.289Z,37.25
2018-12-03T08:07:31.351Z,33.30
2018-12-03T08:10:34.555Z,34.20
2018-12-03T08:13:38.545Z,33.00
2018-12-03T08:16:41.854Z,33.70
2018-12-03T08:19:45.015Z,33.60
2018-12-03T08:22:49.967Z,32.67
2018-12-03T08:25:53.251Z,26.62
2018-12-03T08:28:56.275Z,30.55
2018-12-03T08:31:59.407Z,26.48
2018-12-03T08:35:02.463Z,20.37
2018-12-03T08:38:05.969Z,20.68
2018-12-03T08:41:09.099Z,16.62
2018-12-03T08:44:12.148Z,13.70
2018-12-03T08:47:15.283Z,12.40
2018-12-03T08:50:20.514Z,11.50
2018-12-03T08:53:23.703Z,11.45
2018-12-03T08:56:26.878Z,12.40
2018-12-03T08:59:33.270Z,8.85
2018-12-03T09:02:36.511Z,11.75
2018-12-03T09:05:40.414Z,9.08
2018-12-03T09:08:47.835Z,10.90
2018-12-03T09:11:51.759Z,9.80
2018-12-03T09:14:54.851Z,11.38
2018-12-03T09:17:57.953Z,9.70
2018-12-03T09:21:01.799Z,12.90
2018-12-03T09:24:05.156Z,8.73
2018-12-03T09:27:08.571Z,9.98
2018-12-03T09:30:11.647Z,11.60
2018-12-03T09:33:14.742Z,8.55
2018-12-03T09:36:17.937Z,11.65
2018-12-03T09:39:21.071Z,10.78
2018-12-03T09:42:30.443Z,10.63
2018-12-03T09:45:33.455Z,13.48
2018-12-03T09:48:36.551Z,14.20
2018-12-03T09:51:40.460Z,9.03
2018-12-03T09:54:43.555Z,10.80
2018-12-03T09:57:56.991Z,12.60
2018-12-03T10:01:00.067Z,9.13
2018-12-03T10:04:04.183Z,12.45
2018-12-03T10:07:07.118Z,8.98
2018-12-03T10:10:12.994Z,9.23
2018-12-03T10:13:16.342Z,11.05
2018-12-03T10:16:19.434Z,10.10
2018-12-03T10:19:22.631Z,11.18
2018-12-03T10:22:25.723Z,9.45
2018-12-03T10:25:28.819Z,9.05
2018-12-03T10:28:31.991Z,8.20
2018-12-03T10:31:35.187Z,7.97
2018-12-03T10:34:38.198Z,6.92
2018-12-03T10:37:41.293Z,7.30
2018-12-03T10:40:49.199Z,9.13
2018-12-03T10:43:53.094Z,9.53
2018-12-03T10:46:56.203Z,6.92
2018-12-03T10:49:59.431Z,13.35
2018-12-03T10:53:02.566Z,11.28
2018-12-03T10:56:05.683Z,8.85
2018-12-03T10:59:08.783Z,6.28
2018-12-03T11:02:28.431Z,5.95
2018-12-03T11:05:39.873Z,6.53
2018-12-03T11:08:43.254Z,6.92
2018-12-03T11:11:48.895Z,6.55
2018-12-03T11:14:52.091Z,3.62
2018-12-03T11:17:55.392Z,5.20
2018-12-03T11:21:03.303Z,3.42
2018-12-03T11:24:07.324Z,8.75
2018-12-03T11:27:10.589Z,3.25
2018-12-03T11:30:13.940Z,6.37
2018-12-03T11:33:25.827Z,8.13
2018-12-03T11:36:31.659Z,6.58
2018-12-03T11:39:43.103Z,5.95
2018-12-03T11:42:46.144Z,7.10
2018-12-03T11:45:49.439Z,5.92
2018-12-03T11:48:52.519Z,4.87
2018-12-03T11:51:55.646Z,3.52
2018-12-03T11:54:58.803Z,6.92
2018-12-03T11:58:01.842Z,4.97
2018-12-03T12:01:05.151Z,3.62
2018-12-03T12:04:08.231Z,2.98
2018-12-03T12:07:11.291Z,2.50
2018-12-03T12:10:14.524Z,4.28
2018-12-03T12:13:17.583Z,6.15
2018-12-03T12:16:20.703Z,4.10
2018-12-03T12:19:23.861Z,1.92
2018-12-03T12:22:27.019Z,4.37
2018-12-03T12:25:30.159Z,5.90
2018-12-03T12:28:38.060Z,4.42
2018-12-03T12:31:36.446Z,4.67
2018-12-03T12:34:39.874Z,3.25
2018-12-03T12:37:43.039Z,5.12
2018-12-03T12:40:46.471Z,2.30
2018-12-03T12:43:49.531Z,4.45
2018-12-03T12:46:53.298Z,3.85
2018-12-03T12:49:56.360Z,4.22
2018-12-03T12:52:59.458Z,2.70
2018-12-03T12:56:02.514Z,4.80
2018-12-03T12:59:06.036Z,6.97
2018-12-03T13:02:10.256Z,2.98
2018-12-03T13:05:13.570Z,6.22
2018-12-03T13:08:16.763Z,10.13
2018-12-03T13:11:19.819Z,8.78
2018-12-03T13:14:23.260Z,3.40
2018-12-03T13:17:26.487Z,5.17
2018-12-03T13:20:29.632Z,8.53
2018-12-03T13:23:32.695Z,4.37
2018-12-03T13:26:38.253Z,3.55
2018-12-03T13:29:41.330Z,3.70
2018-12-03T13:32:44.931Z,3.65
2018-12-03T13:35:49.119Z,3.42
2018-12-03T13:38:52.154Z,4.30
2018-12-03T13:41:55.375Z,4.72
2018-12-03T13:44:58.428Z,3.55
2018-12-03T13:48:01.515Z,4.67
2018-12-03T13:51:05.140Z,3.50
2018-12-03T13:54:08.530Z,6.45
2018-12-03T13:57:11.656Z,5.58
2018-12-03T14:00:16.267Z,9.40
2018-12-03T14:03:23.024Z,15.28
2018-12-03T14:06:39.431Z,6.28
2018-12-03T14:09:59.447Z,2.95
2018-12-03T14:13:10.716Z,5.75
2018-12-03T14:16:24.406Z,8.15
2018-12-03T14:19:29.567Z,4.33
2018-12-03T14:22:40.869Z,7.47
2018-12-03T14:25:44.108Z,6.35
2018-12-03T14:28:47.787Z,7.42
2018-12-03T14:31:50.867Z,8.23
2018-12-03T14:34:53.983Z,7.42
2018-12-03T14:37:57.051Z,9.85
2018-12-03T14:41:00.179Z,8.38
2018-12-03T14:44:03.557Z,7.20
2018-12-03T14:47:06.670Z,3.50
2018-12-03T14:50:10.589Z,7.03
2018-12-03T14:53:13.676Z,8.25
2018-12-03T14:56:16.979Z,8.60
2018-12-03T14:59:20.219Z,8.00
2018-12-03T15:02:23.474Z,10.53
2018-12-03T15:05:26.922Z,7.40
2018-12-03T15:08:30.073Z,8.78
2018-12-03T15:11:33.232Z,11.05
2018-12-03T15:14:36.347Z,7.95
2018-12-03T15:17:41.442Z,11.53
2018-12-03T15:20:46.529Z,14.33
2018-12-03T15:23:49.707Z,8.53
2018-12-03T15:26:52.788Z,9.77
2018-12-03T15:29:56.110Z,12.13
2018-12-03T15:32:59.279Z,10.48
2018-12-03T15:36:02.620Z,11.45
2018-12-03T15:39:08.515Z,12.85
2018-12-03T15:42:12.190Z,14.28
2018-12-03T15:45:16.398Z,18.03
2018-12-03T15:48:19.687Z,11.65
2018-12-03T15:51:22.847Z,11.60
2018-12-03T15:54:25.976Z,7.85
2018-12-03T15:57:29.029Z,14.87
2018-12-03T16:00:32.264Z,14.45
2018-12-03T16:03:35.323Z,10.95
2018-12-03T16:06:38.411Z,13.03
2018-12-03T16:09:41.497Z,16.65
2018-12-03T16:12:45.503Z,11.93
2018-12-03T16:15:48.614Z,12.83
2018-12-03T16:18:52.604Z,11.63
2018-12-03T16:21:56.675Z,15.87
2018-12-03T16:25:03.908Z,10.65
2018-12-03T16:28:07.071Z,13.63
2018-12-03T16:31:10.940Z,12.75
2018-12-03T16:34:17.279Z,12.27
2018-12-03T16:37:21.187Z,19.70
2018-12-03T16:40:24.306Z,21.07
2018-12-03T16:43:27.366Z,20.02
2018-12-03T16:46:30.700Z,14.50
2018-12-03T16:49:33.754Z,12.78
2018-12-03T16:52:37.090Z,9.55
2018-12-03T16:55:40.150Z,18.52
2018-12-03T16:58:43.555Z,10.82
2018-12-03T17:01:46.646Z,12.95
2018-12-03T17:04:50.302Z,10.28
2018-12-03T17:07:53.446Z,17.30
2018-12-03T17:10:56.761Z,21.10
2018-12-03T17:13:59.831Z,14.50
2018-12-03T17:17:02.894Z,10.75
2018-12-03T17:20:12.274Z,11.65
2018-12-03T17:23:26.518Z,12.40
2018-12-03T17:26:29.508Z,10.43
2018-12-03T17:29:32.806Z,11.40
2018-12-03T17:32:35.906Z,13.98
2018-12-03T17:35:38.995Z,18.62
2018-12-03T17:38:41.978Z,13.38
2018-12-03T17:41:44.970Z,15.03
2018-12-03T17:44:48.055Z,12.78
2018-12-03T17:47:51.058Z,15.20
2018-12-03T17:50:54.046Z,20.17
2018-12-03T17:53:57.037Z,13.93
2018-12-03T17:57:00.035Z,10.72
2018-12-03T18:00:03.458Z,17.65
2018-12-03T18:03:06.518Z,15.37
2018-12-03T18:06:09.614Z,12.10
2018-12-03T18:09:12.607Z,13.00
2018-12-03T18:12:15.590Z,15.85
2018-12-03T18:15:18.792Z,9.50
2018-12-03T18:18:22.445Z,17.87
2018-12-03T18:21:25.595Z,12.73
2018-12-03T18:24:28.682Z,19.42
2018-12-03T18:27:31.679Z,14.50
2018-12-03T18:30:34.770Z,24.50
2018-12-03T18:33:37.760Z,13.08
2018-12-03T18:36:40.746Z,20.45
2018-12-03T18:39:43.734Z,16.05
2018-12-03T18:42:46.722Z,24.63
2018-12-03T18:45:51.238Z,23.22
2018-12-03T18:49:00.178Z,19.90
2018-12-03T18:52:03.642Z,31.77
2018-12-03T18:55:06.779Z,26.73
2018-12-03T18:58:11.681Z,20.27
2018-12-03T19:01:14.707Z,20.20
2018-12-03T19:04:17.690Z,21.17
2018-12-03T19:07:20.678Z,21.60
2018-12-03T19:10:23.800Z,22.05
2018-12-03T19:13:26.854Z,22.42
2018-12-03T19:16:29.859Z,23.10
2018-12-03T19:19:33.151Z,29.70
2018-12-03T19:22:36.058Z,20.60
2018-12-03T19:25:39.050Z,19.07
2018-12-03T19:28:42.041Z,21.97
2018-12-03T19:31:45.126Z,27.50
2018-12-03T19:34:48.126Z,31.27
2018-12-03T19:37:51.113Z,27.67
2018-12-03T19:40:54.210Z,22.90
2018-12-03T19:43:57.194Z,20.20
2018-12-03T19:47:00.187Z,23.33
2018-12-03T19:50:03.691Z,25.47
2018-12-03T19:53:06.678Z,36.93
2018-12-03T19:56:09.700Z,35.90
2018-12-03T19:59:12.742Z,27.70
2018-12-03T20:02:15.755Z,28.30
2018-12-03T20:05:19.046Z,30.00
2018-12-03T20:08:22.454Z,38.67
2018-12-03T20:11:25.442Z,30.63
2018-12-03T20:14:28.437Z,29.17
2018-12-03T20:17:34.594Z,25.33
2018-12-03T20:20:44.962Z,29.80
2018-12-03T20:23:52.795Z,27.50
2018-12-03T20:27:04.114Z,37.93
2018-12-03T20:31:17.430Z,24.67
2018-12-03T20:34:25.962Z,26.50
2018-12-03T20:38:05.247Z,43.03
2018-12-03T20:41:43.746Z,31.57
2018-12-03T20:44:58.537Z,45.50
2018-12-03T20:48:01.775Z,41.57
2018-12-03T20:51:11.482Z,41.07
2018-12-03T20:54:14.466Z,32.67
2018-12-03T20:57:17.462Z,28.10
2018-12-03T21:00:20.858Z,23.37
2018-12-03T21:03:24.062Z,32.43
2018-12-03T21:06:27.150Z,20.63
2018-12-03T21:09:30.135Z,21.17
2018-12-03T21:12:33.130Z,37.43
2018-12-03T21:15:36.666Z,24.67
2018-12-03T21:18:39.807Z,39.20
2018-12-03T21:21:42.818Z,71.90
2018-12-03T21:24:45.806Z,42.90
2018-12-03T21:27:49.002Z,62.53
2018-12-03T21:30:52.515Z,41.23
2018-12-03T21:33:55.594Z,47.03
2018-12-03T21:36:59.143Z,35.20
2018-12-03T21:40:02.199Z,35.90
2018-12-03T21:43:05.423Z,40.27
2018-12-03T21:46:08.479Z,48.57
2018-12-03T21:49:11.502Z,228.93
2018-12-03T21:52:14.567Z,262.77
2018-12-03T21:55:17.699Z,142.37
2018-12-03T21:58:20.752Z,303.97
2018-12-03T22:01:23.874Z,80.13
2018-12-03T22:04:26.936Z,49.40
2018-12-03T22:07:30.267Z,58.97
2018-12-03T22:10:33.322Z,67.70
2018-12-03T22:13:36.342Z,45.97
2018-12-03T22:16:39.408Z,44.07
2018-12-03T22:19:42.429Z,33.37
2018-12-03T22:22:45.490Z,40.67
2018-12-03T22:25:48.518Z,35.50
2018-12-03T22:28:51.576Z,46.00
2018-12-03T22:31:54.593Z,30.57
2018-12-03T22:34:57.862Z,37.93
2018-12-03T22:38:01.199Z,34.30
2018-12-03T22:41:04.564Z,44.07
2018-12-03T22:44:07.890Z,34.47
2018-12-03T22:47:10.980Z,40.00
2018-12-03T22:50:14.230Z,45.43
2018-12-03T22:53:17.300Z,36.03
2018-12-03T22:56:20.470Z,31.20
2018-12-03T22:59:23.526Z,28.67
2018-12-03T23:02:26.551Z,34.23
2018-12-03T23:05:29.607Z,38.00
2018-12-03T23:08:32.732Z,50.07
2018-12-03T23:11:35.792Z,53.10
2018-12-03T23:14:39.022Z,52.90
2018-12-03T23:17:42.193Z,45.07
2018-12-03T23:20:45.207Z,56.93
2018-12-03T23:23:48.299Z,44.53
2018-12-03T23:26:51.473Z,41.60
2018-12-03T23:29:54.450Z,40.20
2018-12-03T23:32:57.578Z,32.30
2018-12-03T23:36:00.638Z,32.57
2018-12-03T23:39:04.658Z,34.80
2018-12-03T23:42:07.642Z,50.87
2018-12-03T23:45:10.767Z,39.73
2018-12-03T23:48:13.930Z,42.37
2018-12-03T23:51:16.965Z,38.50
2018-12-03T23:54:20.010Z,34.87
2018-12-03T23:57:23.142Z,31.63
